Map

Track Data

SID SEASON NUMBER BASIN SUBBASIN NAME ISO_TIME NATURE LAT LON WMO_WIND WMO_PRES WMO_AGENCY TRACK_TYPE DIST2LAND LANDFALL IFLAG USA_AGENCY USA_ATCF_ID USA_LAT USA_LON USA_RECORD USA_STATUS USA_WIND USA_PRES USA_SSHS USA_R34_NE USA_R34_SE USA_R34_SW USA_R34_NW USA_R50_NE USA_R50_SE USA_R50_SW USA_R50_NW USA_R64_NE USA_R64_SE USA_R64_SW USA_R64_NW USA_POCI USA_ROCI USA_RMW USA_EYE TOKYO_LAT TOKYO_LON TOKYO_GRADE TOKYO_WIND TOKYO_PRES TOKYO_R50_DIR TOKYO_R50_LONG TOKYO_R50_SHORT TOKYO_R30_DIR TOKYO_R30_LONG TOKYO_R30_SHORT TOKYO_LAND CMA_LAT CMA_LON CMA_CAT CMA_WIND CMA_PRES HKO_LAT HKO_LON HKO_CAT HKO_WIND HKO_PRES NEWDELHI_LAT NEWDELHI_LON NEWDELHI_GRADE NEWDELHI_WIND NEWDELHI_PRES NEWDELHI_CI NEWDELHI_DP NEWDELHI_POCI REUNION_LAT REUNION_LON REUNION_TYPE REUNION_WIND REUNION_PRES REUNION_TNUM REUNION_CI REUNION_RMW REUNION_R34_NE REUNION_R34_SE REUNION_R34_SW REUNION_R34_NW REUNION_R50_NE REUNION_R50_SE REUNION_R50_SW REUNION_R50_NW REUNION_R64_NE REUNION_R64_SE REUNION_R64_SW REUNION_R64_NW BOM_LAT BOM_LON BOM_TYPE BOM_WIND BOM_PRES BOM_TNUM BOM_CI BOM_RMW BOM_R34_NE BOM_R34_SE BOM_R34_SW BOM_R34_NW BOM_R50_NE BOM_R50_SE BOM_R50_SW BOM_R50_NW BOM_R64_NE BOM_R64_SE BOM_R64_SW BOM_R64_NW BOM_ROCI BOM_POCI BOM_EYE BOM_POS_METHOD BOM_PRES_METHOD NADI_LAT NADI_LON NADI_CAT NADI_WIND NADI_PRES WELLINGTON_LAT WELLINGTON_LON WELLINGTON_WIND WELLINGTON_PRES DS824_LAT DS824_LON DS824_STAGE DS824_WIND DS824_PRES TD9636_LAT TD9636_LON TD9636_STAGE TD9636_WIND TD9636_PRES TD9635_LAT TD9635_LON TD9635_WIND TD9635_PRES TD9635_ROCI NEUMANN_LAT NEUMANN_LON NEUMANN_CLASS NEUMANN_WIND NEUMANN_PRES MLC_LAT MLC_LON MLC_CLASS MLC_WIND MLC_PRES USA_GUST BOM_GUST BOM_GUST_PER REUNION_GUST REUNION_GUST_PER USA_SEAHGT USA_SEARAD_NE USA_SEARAD_SE USA_SEARAD_SW USA_SEARAD_NW STORM_SPEED STORM_DIR
1998064S13061 1998 17 SI MM DONALINE 1998-03-04 12:00:00 TS -13.4000 61.2000 20 1003 reunion main 837 832 _____O______O_ -1 -13.4000 61.2000 2 20 1003 1.00000 1.00000 -13.4000 61.2000 TC 25 1003 4 118
1998064S13061 1998 17 SI MM DONALINE 1998-03-04 15:00:00 TS -13.5000 61.3950 main 836 827 _____P______P_ -1 -13.5000 61.3950 2 20 1002 -13.5000 61.3950 TC 25 1002 5 121
1998064S13061 1998 17 SI MM DONALINE 1998-03-04 18:00:00 TS -13.6714 61.6571 20 1002 reunion main 833 828 O____O______O_ jtwc_sh SH261998 -14.1000 62.0000 20 -1 -13.6000 61.6000 2 20 1002 1.50000 1.50000 -13.6000 61.6000 TC 25 1002 6 122
1998064S13061 1998 17 SI MM DONALINE 1998-03-04 21:00:00 TS -13.8015 61.8900 main 834 827 P____P______P_ SH261998 -14.1575 62.1901 20 -1 -13.7125 61.8150 2 20 1002 -13.7125 61.8150 TC 25 1002 6 128
1998064S13061 1998 17 SI MM DONALINE 1998-03-05 00:00:00 TS -14.0091 62.1091 20 1002 reunion main 827 805 O____O______O_ jtwc_sh SH261998 -14.3000 62.4000 20 -1 -13.9000 62.0000 2 20 1002 1.50000 1.50000 -13.9000 62.0000 TC 25 1002 7 146
1998064S13061 1998 17 SI MM DONALINE 1998-03-05 03:00:00 TS -14.3391 62.2660 main 812 783 P____P______P_ SH261998 -14.5775 62.6424 22 -1 -14.2199 62.0777 2 22 1001 -14.2199 62.0777 TC 27 1001 8 156
1998064S13061 1998 17 SI MM DONALINE 1998-03-05 06:00:00 TS -14.7000 62.4333 25 1000 reunion main 783 771 O____O______O_ jtwc_sh SH261998 -14.9000 62.9000 25 -1 -14.6000 62.2000 2 25 1000 2.00000 2.00000 -14.6000 62.2000 TC 30 1000 8 149
1998064S13061 1998 17 SI MM DONALINE 1998-03-05 09:00:00 TS -15.0415 62.6975 main 778 769 P____P______P_ SH261998 -15.1649 63.1426 25 -1 -14.9799 62.4749 2 25 999 -14.9799 62.4749 TC 30 999 9 136
1998064S13061 1998 17 SI MM DONALINE 1998-03-05 12:00:00 TS -15.3333 63.0667 25 999 reunion main 784 776 O____O______O_ jtwc_sh SH261998 -15.4000 63.4000 25 -1 -15.3000 62.9000 2 25 999 2.00000 2.00000 -15.3000 62.9000 TC 30 999 10 121
1998064S13061 1998 17 SI MM DONALINE 1998-03-05 15:00:00 TS -15.5301 63.5492 main 801 801 P____P______P_ SH261998 -15.6149 63.6776 25 -1 -15.4878 63.4851 2 25 999 -15.4878 63.4851 TC 30 999 10 109
1998064S13061 1998 17 SI MM DONALINE 1998-03-05 18:00:00 TS -15.6667 64.0667 25 999 reunion main 837 837 O____O______O_ jtwc_sh SH261998 -15.8000 64.0000 25 -1 -15.6000 64.1000 2 25 999 2.00000 2.00000 -15.6000 64.1000 TC 30 999 10 106
1998064S13061 1998 17 SI MM DONALINE 1998-03-05 21:00:00 TS -15.7906 64.4976 main 865 865 P____P______P_ SH261998 -15.9572 64.3477 25 -1 -15.7073 64.5726 2 25 999 -15.7073 64.5726 TC 30 999 9 106
1998064S13061 1998 17 SI MM DONALINE 1998-03-06 00:00:00 TS -15.9000 64.9333 25 999 reunion main 894 894 O____O______O_ jtwc_sh SH261998 -16.1000 64.8000 25 -1 -15.8000 65.0000 2 25 999 2.00000 2.00000 -15.8000 65.0000 TC 30 999 9 104
1998064S13061 1998 17 SI MM DONALINE 1998-03-06 03:00:00 TS -16.0216 65.4350 main 934 934 P____P______P_ SH261998 -16.2653 65.4348 25 -1 -15.8998 65.4351 2 25 999 -15.8998 65.4351 TC 30 999 10 103
1998064S13061 1998 17 SI MM DONALINE 1998-03-06 06:00:00 TS -16.1333 65.9667 25 999 reunion main 984 984 O____O______O_ jtwc_sh SH261998 -16.4000 66.1000 25 -1 -16.0000 65.9000 2 25 999 2.00000 2.00000 -16.0000 65.9000 TC 30 999 11 100
1998064S13061 1998 17 SI MM DONALINE 1998-03-06 09:00:00 TS -16.2092 66.5126 main 1026 1026 P____P______P_ SH261998 -16.4572 66.6227 27 -1 -16.0851 66.4576 2 26 998 -16.0851 66.4576 TC 32 998 10 99
1998064S13061 1998 17 SI MM DONALINE 1998-03-06 12:00:00 TS -16.3000 67.0333 28 997 reunion main 1069 1069 O____O______O_ jtwc_sh SH261998 -16.5000 67.1000 30 -1 -16.2000 67.0000 2 28 997 2.50000 2.50000 -16.2000 67.0000 TC 35 997 10 103
1998064S13061 1998 17 SI MM DONALINE 1998-03-06 15:00:00 TS -16.4291 67.5018 main 1112 1112 P____P______P_ SH261998 -16.5626 67.6301 30 -1 -16.3624 67.4376 2 29 996 -16.3624 67.4376 TC 37 996 9 112
1998064S13061 1998 17 SI MM DONALINE 1998-03-06 18:00:00 TS -16.6333 67.9000 30 995 reunion main 1142 1138 O____O______O_ jtwc_sh SH261998 -16.7000 68.1000 30 -1 -16.6000 67.8000 2 30 995 2.50000 2.50000 -16.6000 67.8000 TC 40 995 9 126
1998064S13061 1998 17 SI MM DONALINE 1998-03-06 21:00:00 TS -16.9316 68.2375 main 1159 1159 P____P______P_ SH261998 -16.9699 68.4524 35 0 -16.9124 68.1300 2 32 993 -16.9124 68.1300 TC 42 993 9 139
1998064S13061 1998 17 SI MM DONALINE 1998-03-07 00:00:00 TS -17.3000 68.5000 35 992 reunion main 1174 1171 O____O______O_ jtwc_sh SH261998 -17.3000 68.7000 40 0 -17.3000 68.4000 3 35 992 3.00000 3.00000 -17.3000 68.4000 TC 45 992 9 150
1998064S13061 1998 17 SI MM DONALINE 1998-03-07 03:00:00 TS -17.7024 68.7084 main 1182 1179 P____P______P_ SH261998 -17.5924 68.8801 42 0 -17.7574 68.6225 3 37 990 -17.7574 68.6225 TC 47 990 9 156
1998064S13061 1998 17 SI MM DONALINE 1998-03-07 06:00:00 TS -18.1000 68.8667 40 988 reunion main 1191 1185 O____O______O_ jtwc_sh SH261998 -17.9000 69.0000 45 0 -18.2000 68.8000 3 40 988 3.50000 3.50000 -18.2000 68.8000 TC 50 988 8 158
1998064S13061 1998 17 SI MM DONALINE 1998-03-07 09:00:00 TS -18.4492 69.0225 main 1193 1191 P____P______P_ SH261998 -18.2425 69.1076 47 0 -18.5525 68.9800 3 40 988 -18.5525 68.9800 TC 50 988 7 158
1998064S13061 1998 17 SI MM DONALINE 1998-03-07 12:00:00 TS -18.7333 69.1333 40 988 reunion main 1197 1195 O____O______O_ jtwc_sh SH261998 -18.6000 69.2000 50 0 -18.8000 69.1000 3 40 988 3.50000 3.50000 -18.8000 69.1000 TC 50 988 5 163
1998064S13061 1998 17 SI MM DONALINE 1998-03-07 15:00:00 TS -18.9441 69.1793 main 1204 1200 P____P______P_ SH261998 -18.9575 69.2926 52 0 -18.9375 69.1226 3 40 988 -18.9375 69.1226 TC 50 988 4 169
1998064S13061 1998 17 SI MM DONALINE 1998-03-07 18:00:00 TS -19.1000 69.2000 40 988 reunion main 1200 1199 O____O______O_ jtwc_sh SH261998 -19.3000 69.4000 55 0 -19.0000 69.1000 3 40 988 3.00000 3.50000 -19.0000 69.1000 TC 50 988 3 167
1998064S13061 1998 17 SI MM DONALINE 1998-03-07 21:00:00 TS -19.2058 69.2326 main 1199 1199 P____P______P_ SH261998 -19.6075 69.5425 55 0 -19.0050 69.0776 3 40 988 -19.0050 69.0776 TC 50 988 3 161
1998064S13061 1998 17 SI MM DONALINE 1998-03-08 00:00:00 TS -19.3667 69.3000 40 988 reunion main 1206 1205 O____O______O_ jtwc_sh SH261998 -19.9000 69.7000 55 0 -19.1000 69.1000 3 40 988 3.00000 3.50000 -19.1000 69.1000 TC 50 988 5 162
1998064S13061 1998 17 SI MM DONALINE 1998-03-08 03:00:00 TS -19.7007 69.4076 main 1213 1212 P____P______P_ SH261998 -20.1924 69.8277 55 0 -19.4549 69.1976 3 37 989 -19.4549 69.1976 TC 47 989 8 159
1998064S13061 1998 17 SI MM DONALINE 1998-03-08 06:00:00 TS -20.1000 69.6000 35 990 reunion main 1231 1230 O____O______O_ jtwc_sh SH261998 -20.5000 70.0000 55 0 -19.9000 69.4000 3 35 990 3.00000 3.00000 -19.9000 69.4000 TC 45 990 9 148
1998064S13061 1998 17 SI MM DONALINE 1998-03-08 09:00:00 TS -20.4450 69.9034 main 1261 1260 P____P______P_ SH261998 -20.8351 70.2850 52 0 -20.2500 69.7126 3 35 990 -20.2500 69.7126 TC 45 990 9 138
1998064S13061 1998 17 SI MM DONALINE 1998-03-08 12:00:00 TS -20.8000 70.2667 35 990 reunion main 1302 1302 O____O______O_ jtwc_sh SH261998 -21.2000 70.6000 50 0 -20.6000 70.1000 3 35 990 2.50000 3.00000 -20.6000 70.1000 TC 45 990 10 138
1998064S13061 1998 17 SI MM DONALINE 1998-03-08 15:00:00 TS -21.2025 70.6241 main 1334 1334 P____P______P_ SH261998 -21.6074 70.8576 50 0 -21.0001 70.5074 3 35 991 -21.0001 70.5074 TC 45 991 10 141
1998064S13061 1998 17 SI MM DONALINE 1998-03-08 18:00:00 TS -21.6000 70.9667 35 992 reunion main 1377 1377 O____O______O_ jtwc_sh SH261998 -22.0000 71.1000 50 0 -21.4000 70.9000 3 35 992 2.50000 3.00000 -21.4000 70.9000 TC 45 992 10 140
1998064S13061 1998 17 SI MM DONALINE 1998-03-08 21:00:00 TS -21.9408 71.2801 main 1411 1411 P____P______P_ SH261998 -22.3225 71.3501 47 0 -21.7500 71.2451 3 32 993 -21.7500 71.2451 TC 42 993 8 141
1998064S13061 1998 17 SI MM DONALINE 1998-03-09 00:00:00 TS -22.2364 71.5273 30 995 reunion main 1434 1434 O____O______O_ jtwc_sh SH261998 -22.6000 71.6000 45 0 -22.1000 71.5000 2 30 995 2.50000 2.50000 -22.1000 71.5000 TC 40 995 7 149
1998064S13061 1998 17 SI MM DONALINE 1998-03-09 03:00:00 TS -22.5589 71.6861 main 1460 1460 P____P______P_ SH261998 -22.8551 71.8498 42 0 -22.4849 71.6451 2 30 996 -22.4849 71.6451 TC 37 996 7 163
1998064S13061 1998 17 SI MM DONALINE 1998-03-09 06:00:00 TS -22.9222 71.7444 30 997 reunion main 1465 1465 O____O______O_ jtwc_sh SH261998 -23.1000 72.1000 40 0 -22.9000 71.7000 2 30 997 2.00000 2.50000 -22.9000 71.7000 TC 35 997 8 177
1998064S13061 1998 17 SI MM DONALINE 1998-03-09 09:00:00 TS -23.3125 71.7225 main 1472 1472 _____P______P_ SH261998 -1 -23.3125 71.7225 2 30 997 -23.3125 71.7225 TC 35 997 9 182
1998064S13061 1998 17 SI MM DONALINE 1998-03-09 12:00:00 TS -23.8000 71.7000 30 997 reunion main 1483 1483 _____O______O_ -1 -23.8000 71.7000 2 30 997 1.50000 2.50000 -23.8000 71.7000 TC 35 997 11 184
1998064S13061 1998 17 SI MM DONALINE 1998-03-09 15:00:00 TS -24.4425 71.6502 main 1499 1492 _____P______P_ -1 -24.4425 71.6502 2 27 998 -24.4425 71.6502 TC 32 998 13 184
1998064S13061 1998 17 SI MM DONALINE 1998-03-09 18:00:00 TS -25.1000 71.6000 25 999 reunion main 1512 1512 _____O______O_ -1 -25.1000 71.6000 2 25 999 1.50000 2.00000 -25.1000 71.6000 TC 30 999 12 182
1998064S13061 1998 17 SI MM DONALINE 1998-03-09 21:00:00 TS -25.6225 71.5850 main 1530 1530 _____P______P_ -1 -25.6225 71.5850 2 25 999 -25.6225 71.5850 TC 30 999 10 179
1998064S13061 1998 17 SI MM DONALINE 1998-03-10 00:00:00 TS -26.1000 71.6000 25 1000 reunion main 1549 1549 _____O______O_ -1 -26.1000 71.6000 2 25 1000 1.50000 1.50000 -26.1000 71.6000 TC 30 1000 10 177
1998064S13061 1998 17 SI MM DONALINE 1998-03-10 03:00:00 TS -26.5775 71.6351 main 1570 1570 _____P______P_ -1 -26.5775 71.6351 2 25 1001 -26.5775 71.6351 TC 27 1001 10 175
1998064S13061 1998 17 SI MM DONALINE 1998-03-10 06:00:00 TS -27.1000 71.7000 25 1002 reunion main 1601 1601 _____O______O_ -1 -27.1000 71.7000 2 25 1002 1.50000 1.50000 -27.1000 71.7000 TC 25 1002 12 173
1998064S13061 1998 17 SI MM DONALINE 1998-03-10 09:00:00 TS -27.7200 71.7998 main 1639 1639 _____P______P_ -1 -27.7200 71.7998 2 25 1002 -27.7200 71.7998 TC 25 1002 13 172
1998064S13061 1998 17 SI MM DONALINE 1998-03-10 12:00:00 TS -28.4000 71.9000 25 1002 reunion main 1683 1683 _____O______O_ -1 -28.4000 71.9000 2 25 1002 1.50000 1.50000 -28.4000 71.9000 TC 25 1002 14 174
1998064S13061 1998 17 SI MM DONALINE 1998-03-10 15:00:00 TS -29.1075 71.9650 main 1730 1730 _____P______P_ -1 -29.1075 71.9650 2 25 1002 -29.1075 71.9650 TC 25 1002 14 176
1998064S13061 1998 17 SI MM DONALINE 1998-03-10 18:00:00 TS -29.8000 72.0000 25 1002 reunion main 1771 1771 _____O______O_ -1 -29.8000 72.0000 2 25 1002 1.50000 1.50000 -29.8000 72.0000 TC 25 1002 14 0
1998064S13061 1998 17 SI MM DONALINE 1998-03-10 21:00:00 TS -30.4523 71.9484 main 1807 1807 _____P______P_ -1 -30.4523 71.9484 2 -30.4523 71.9484 TC 25 12 179
1998064S13061 1998 17 SI MM DONALINE 1998-03-11 00:00:00 ET -31.0000 72.0000 reunion main 1847 1847 _____O______O_ -1 -31.0000 72.0000 5 9.90000 -31.0000 72.0000 EX 25 10 162
1998064S13061 1998 17 SI MM DONALINE 1998-03-11 03:00:00 ET -31.3572 72.2959 main 1896 1896 _____P______P_ -1 -31.3572 72.2959 5 -31.3572 72.2959 EX 25 10 136
1998064S13061 1998 17 SI MM DONALINE 1998-03-11 06:00:00 ET -31.7000 72.8000 reunion main 1929 1883 _____O______O_ -1 -31.7000 72.8000 5 9.90000 -31.7000 72.8000 EX 25 13 130
1998064S13061 1998 17 SI MM DONALINE 1998-03-11 09:00:00 ET -32.1980 73.4698 main 1884 1831 _____P______P_ -1 -32.1980 73.4698 5 -32.1980 73.4698 EX 25 16 133
1998064S13061 1998 17 SI MM DONALINE 1998-03-11 12:00:00 ET -32.8000 74.2000 reunion main 1831 1776 _____O______O_ -1 -32.8000 74.2000 5 9.90000 -32.8000 74.2000 EX 25 17 139
1998064S13061 1998 17 SI MM DONALINE 1998-03-11 15:00:00 ET -33.4617 74.7943 main 1768 1705 _____P______P_ -1 -33.4617 74.7943 5 -33.4617 74.7943 EX 25 17 144
1998064S13061 1998 17 SI MM DONALINE 1998-03-11 18:00:00 ET -34.2000 75.4000 reunion main 1705 1633 _____O______O_ -1 -34.2000 75.4000 5 9.90000 -34.2000 75.4000 EX 25 19 145
1998064S13061 1998 17 SI MM DONALINE 1998-03-11 21:00:00 ET -34.9995 76.1057 main 1633 1567 _____P______P_ -1 -34.9995 76.1057 5 -34.9995 76.1057 EX 25 20 142
1998064S13061 1998 17 SI MM DONALINE 1998-03-12 00:00:00 ET -35.8000 76.9000 reunion main 1567 1516 _____O______O_ -1 -35.8000 76.9000 5 9.90000 -35.8000 76.9000 EX 25 20 138
1998064S13061 1998 17 SI MM DONALINE 1998-03-12 03:00:00 ET -36.5265 77.7746 main 1519 1474 _____P______P_ -1 -36.5265 77.7746 5 -36.5265 77.7746 EX 25 20 134
1998064S13061 1998 17 SI MM DONALINE 1998-03-12 06:00:00 ET -37.2000 78.7000 reunion main 1477 _____O______O_ -1 -37.2000 78.7000 5 9.90000 -37.2000 78.7000 EX 25 20 132

About IBTrACS Database

This database is a web-friendly format of International Best Track Archive for Climate Stewardship (IBTrACS), a global best track data archive curated by NOAA dating back to 1842.

Updated: 2021-11-26